Time;durP1;ratioP1;P1;durP2;ratioP2;P2;SDS_P1;SDS_P2;PMS_P1;PMS_P2;Temp;Humidity;BMP_temperature;BMP_pressure;BME280_temperature;BME280_humidity;BME280_pressure;Samples;Min_cycle;Max_cycle;Signal;HPM_P1;HPM_P2
2022/06/29 00:00:26;;;;;;;5.80;1.55;;;;;;;19.23;71.01;101224.63;4995065;28;20181;-67
2022/06/29 00:02:54;;;;;;;3.08;1.48;;;;;;;19.18;71.18;101215.31;5000162;28;20042;-67
2022/06/29 00:05:23;;;;;;;1.95;1.40;;;;;;;19.11;71.26;101219.50;4989235;28;20069;-67
2022/06/29 00:07:51;;;;;;;2.80;1.38;;;;;;;19.06;71.85;101216.38;4996048;28;20042;-67
2022/06/29 00:10:19;;;;;;;2.25;1.52;;;;;;;19.03;72.07;101217.47;4980072;28;20057;-67
2022/06/29 00:12:47;;;;;;;5.90;1.33;;;;;;;19.02;72.10;101222.94;4991184;28;20065;-67
2022/06/29 00:15:16;;;;;;;9.25;1.33;;;;;;;18.98;71.79;101217.84;4994290;28;20041;-66
2022/06/29 00:17:43;;;;;;;1.83;1.50;;;;;;;18.96;72.31;101218.97;4984788;28;20041;-66
2022/06/29 00:20:10;;;;;;;4.38;1.63;;;;;;;18.95;72.25;101215.44;4995702;28;20045;-66
2022/06/29 00:22:39;;;;;;;3.10;1.25;;;;;;;18.91;73.21;101211.38;4997904;28;20141;-66
2022/06/29 00:25:07;;;;;;;1.50;1.40;;;;;;;18.89;72.90;101204.47;4993250;28;20719;-68
2022/06/29 00:27:35;;;;;;;2.92;1.70;;;;;;;18.88;73.60;101202.78;5001358;28;20328;-68
2022/06/29 00:30:03;;;;;;;5.28;2.15;;;;;;;18.87;73.29;101193.94;4994659;28;20077;-67
2022/06/29 00:32:31;;;;;;;2.05;1.55;;;;;;;18.85;73.25;101184.34;5013169;28;20058;-67
2022/06/29 00:34:58;;;;;;;1.90;1.48;;;;;;;18.83;72.94;101186.31;4990237;28;20525;-66
2022/06/29 00:37:27;;;;;;;2.67;1.77;;;;;;;18.78;73.67;101188.50;4981207;28;20078;-66
2022/06/29 00:39:55;;;;;;;2.47;1.80;;;;;;;18.75;74.00;101181.63;4982528;28;20550;-67
2022/06/29 00:42:22;;;;;;;4.25;1.83;;;;;;;18.72;74.66;101188.03;4971786;28;20065;-67
2022/06/29 00:44:50;;;;;;;2.88;1.35;;;;;;;18.70;74.82;101179.34;4983109;28;20615;-67
2022/06/29 00:47:17;;;;;;;3.22;1.58;;;;;;;18.72;75.62;101180.03;5001560;28;20606;-67
2022/06/29 00:49:45;;;;;;;3.78;1.45;;;;;;;18.69;75.52;101164.31;4999519;28;20532;-67
2022/06/29 00:52:14;;;;;;;2.78;1.60;;;;;;;18.66;75.44;101158.38;4994948;28;20046;-66
2022/06/29 00:54:49;;;;;;;2.08;1.77;;;;;;;18.63;75.84;101159.44;4995893;28;20070;-67
2022/06/29 00:57:18;;;;;;;4.95;1.80;;;;;;;18.58;76.28;101147.50;5000996;28;20054;-67
2022/06/29 00:59:48;;;;;;;2.03;1.30;;;;;;;18.55;76.50;101137.94;4999284;28;20064;-67
2022/06/29 01:02:17;;;;;;;4.05;1.83;;;;;;;18.54;76.96;101144.22;5000215;28;20054;-66
2022/06/29 01:04:46;;;;;;;2.10;1.50;;;;;;;18.53;77.24;101150.53;5002034;28;20125;-67
2022/06/29 01:07:15;;;;;;;3.10;1.80;;;;;;;18.50;77.27;101158.78;4987695;28;20081;-67
2022/06/29 01:09:45;;;;;;;4.65;1.65;;;;;;;18.45;77.55;101161.84;4992793;28;20158;-67
2022/06/29 01:12:13;;;;;;;2.25;1.55;;;;;;;18.41;77.55;101154.22;5002667;28;20147;-67
2022/06/29 01:14:42;;;;;;;2.97;1.58;;;;;;;18.39;77.52;101156.19;5002651;28;20062;-67
2022/06/29 01:17:11;;;;;;;3.70;2.05;;;;;;;18.37;78.37;101155.47;4992972;28;20068;-67
2022/06/29 01:19:39;;;;;;;4.07;2.05;;;;;;;18.34;77.88;101151.25;4982170;28;20058;-67
2022/06/29 01:22:13;;;;;;;3.25;1.63;;;;;;;18.32;78.16;101147.00;4996777;28;20046;-67
2022/06/29 01:24:41;;;;;;;2.35;1.70;;;;;;;18.26;78.55;101144.84;4997669;28;20049;-68
2022/06/29 01:27:08;;;;;;;2.45;1.40;;;;;;;18.23;78.90;101145.94;4964455;28;20050;-67
2022/06/29 01:33:36;;;;;;;4.75;1.60;;;;;;;18.18;79.22;101149.00;4992812;28;20132;-67
2022/06/29 01:36:04;;;;;;;3.95;2.05;;;;;;;18.14;79.11;101146.69;5003233;28;20041;-67
2022/06/29 01:38:31;;;;;;;11.15;1.80;;;;;;;18.11;79.30;101155.81;4992091;28;20046;-66
2022/06/29 01:40:58;;;;;;;5.78;1.77;;;;;;;18.11;79.51;101150.50;4975324;28;20520;-67
2022/06/29 01:43:26;;;;;;;2.65;1.67;;;;;;;18.09;79.22;101136.44;5013182;28;20076;-67
2022/06/29 01:45:53;;;;;;;2.92;1.60;;;;;;;18.10;79.68;101147.94;4990885;28;20050;-67
2022/06/29 01:48:20;;;;;;;4.75;1.92;;;;;;;18.05;79.88;101153.63;4997584;28;20176;-67
2022/06/29 01:50:48;;;;;;;3.20;1.38;;;;;;;18.03;79.98;101149.41;4996021;28;20065;-67
2022/06/29 01:53:16;;;;;;;3.42;1.63;;;;;;;18.01;79.90;101143.34;4979467;28;20046;-67
2022/06/29 01:55:44;;;;;;;2.95;1.85;;;;;;;18.01;80.37;101146.88;4987920;28;20054;-67
2022/06/29 01:58:12;;;;;;;5.00;1.63;;;;;;;18.00;79.86;101153.16;5016939;28;20060;-66
2022/06/29 02:00:40;;;;;;;4.85;1.73;;;;;;;17.99;79.88;101151.47;4991510;28;20141;-66
2022/06/29 02:03:07;;;;;;;2.90;1.45;;;;;;;17.99;80.26;101153.31;4992256;28;20150;-66
2022/06/29 02:05:35;;;;;;;3.47;1.42;;;;;;;17.94;80.26;101149.19;5001987;28;20046;-66
2022/06/29 02:08:03;;;;;;;3.97;1.77;;;;;;;17.92;80.16;101145.81;4996077;28;20037;-66
2022/06/29 02:10:30;;;;;;;3.00;1.77;;;;;;;17.90;80.49;101149.56;4992078;28;21090;-67
2022/06/29 02:12:58;;;;;;;3.65;1.92;;;;;;;17.86;80.88;101150.78;5000112;28;20100;-67
2022/06/29 02:15:26;;;;;;;3.22;1.65;;;;;;;17.84;80.72;101144.75;4999532;28;20055;-66
2022/06/29 02:17:53;;;;;;;1.55;1.40;;;;;;;17.82;80.50;101144.00;4999989;28;20049;-67
2022/06/29 02:20:20;;;;;;;3.95;1.52;;;;;;;17.80;80.85;101149.47;4990654;28;20622;-66
2022/06/29 02:22:47;;;;;;;3.35;1.77;;;;;;;17.79;80.81;101152.28;4990271;28;20580;-66
2022/06/29 02:25:14;;;;;;;3.33;1.83;;;;;;;17.78;81.36;101148.75;4989669;28;20045;-66
2022/06/29 02:27:44;;;;;;;3.75;2.08;;;;;;;17.79;81.33;101149.63;5003805;28;20046;-66
2022/06/29 02:30:13;;;;;;;3.47;1.70;;;;;;;17.78;81.48;101138.09;4993373;28;20065;-66
2022/06/29 02:35:31;;;;;;;6.15;2.40;;;;;;;17.75;81.62;101154.34;5006654;28;20041;-66
2022/06/29 02:37:58;;;;;;;1.73;1.27;;;;;;;17.75;81.58;101162.31;4982177;28;20442;-67
2022/06/29 02:40:25;;;;;;;2.10;1.58;;;;;;;17.76;82.24;101164.00;4977635;28;20046;-67
2022/06/29 02:42:52;;;;;;;4.00;1.85;;;;;;;17.75;81.77;101166.81;5004202;28;20057;-67
2022/06/29 02:45:29;;;;;;;6.28;1.90;;;;;;;17.73;81.61;101166.88;4995893;28;20544;-68
2022/06/29 02:47:56;;;;;;;2.25;1.77;;;;;;;17.70;81.60;101152.00;4998981;28;20153;-67
2022/06/29 02:50:24;;;;;;;3.30;1.92;;;;;;;17.69;81.84;101158.28;4994466;28;20066;-67
2022/06/29 02:52:51;;;;;;;2.97;1.67;;;;;;;17.69;81.86;101158.28;5001056;28;20046;-67
2022/06/29 02:55:18;;;;;;;1.90;1.27;;;;;;;17.68;82.10;101153.94;5016121;28;20041;-67
2022/06/29 02:57:45;;;;;;;4.30;1.63;;;;;;;17.68;82.17;101150.44;4995370;28;20053;-65
2022/06/29 03:00:13;;;;;;;2.83;1.92;;;;;;;17.65;82.06;101151.53;5000730;28;20061;-66
2022/06/29 03:02:41;;;;;;;5.50;1.90;;;;;;;17.65;81.94;101154.19;4979943;28;20050;-67
2022/06/29 03:05:09;;;;;;;3.08;1.58;;;;;;;17.64;82.14;101156.97;4997115;28;20050;-66
2022/06/29 03:07:37;;;;;;;2.90;1.73;;;;;;;17.62;82.71;101150.94;4989027;28;20041;-67
2022/06/29 03:10:05;;;;;;;4.10;1.55;;;;;;;17.61;82.52;101160.72;5004172;28;20518;-67
2022/06/29 03:12:32;;;;;;;2.45;1.60;;;;;;;17.62;82.46;101157.09;4999159;28;20050;-65
2022/06/29 03:14:59;;;;;;;3.25;1.48;;;;;;;17.61;82.47;101163.41;4999373;28;20076;-67
2022/06/29 03:17:27;;;;;;;2.97;1.52;;;;;;;17.61;82.05;101168.72;4991541;28;20076;-66
2022/06/29 03:19:54;;;;;;;3.22;2.08;;;;;;;17.63;82.42;101160.59;5002683;28;20053;-66
2022/06/29 03:22:21;;;;;;;4.68;1.75;;;;;;;17.64;82.20;101160.47;4984194;28;20561;-66
2022/06/29 03:24:48;;;;;;;4.05;1.63;;;;;;;17.66;82.22;101158.53;4988443;28;20057;-65
2022/06/29 03:27:16;;;;;;;3.60;1.60;;;;;;;17.68;82.17;101159.25;4986820;28;20076;-66
2022/06/29 03:29:43;;;;;;;2.85;1.77;;;;;;;17.70;81.98;101152.00;4990462;28;20069;-66
2022/06/29 03:32:11;;;;;;;2.58;1.70;;;;;;;17.71;81.96;101152.84;4988558;28;20046;-66
2022/06/29 03:34:39;;;;;;;4.13;1.90;;;;;;;17.74;81.68;101154.44;5005107;28;20156;-67
2022/06/29 03:37:06;;;;;;;3.03;2.22;;;;;;;17.77;81.64;101149.72;4990077;28;20054;-66
2022/06/29 03:39:33;;;;;;;4.30;1.52;;;;;;;17.80;81.68;101143.31;4991426;28;20058;-67
2022/06/29 03:42:00;;;;;;;5.90;1.70;;;;;;;17.84;81.64;101140.28;4989676;28;20050;-67
2022/06/29 03:44:28;;;;;;;5.25;2.08;;;;;;;17.87;81.62;101137.34;4991892;28;20417;-67
2022/06/29 03:46:55;;;;;;;3.88;1.92;;;;;;;17.91;81.49;101138.78;4985067;28;20421;-66
2022/06/29 03:49:22;;;;;;;3.47;1.70;;;;;;;17.96;81.06;101155.22;4986563;28;20052;-66
2022/06/29 03:51:50;;;;;;;3.50;1.73;;;;;;;18.01;80.52;101146.88;4987221;28;20065;-67
2022/06/29 03:54:17;;;;;;;2.67;2.03;;;;;;;18.05;80.74;101148.31;4985436;28;20751;-66
2022/06/29 03:56:44;;;;;;;4.03;1.80;;;;;;;18.08;80.52;101149.88;4989643;28;20061;-67
2022/06/29 03:59:11;;;;;;;2.05;1.40;;;;;;;18.11;80.19;101149.66;4992869;28;20096;-65
2022/06/29 04:01:39;;;;;;;3.35;1.73;;;;;;;18.14;79.94;101150.22;5005810;28;20062;-65
2022/06/29 04:04:06;;;;;;;3.05;2.10;;;;;;;18.19;79.83;101147.16;4992749;28;20052;-67
2022/06/29 04:06:34;;;;;;;3.72;2.08;;;;;;;18.26;79.56;101147.53;4992965;28;20129;-65
2022/06/29 04:09:01;;;;;;;3.60;1.65;;;;;;;18.31;79.27;101155.97;4992012;28;20156;-66
2022/06/29 04:14:18;;;;;;;3.25;1.67;;;;;;;18.43;79.06;101165.63;4992075;28;20057;-66
2022/06/29 04:16:46;;;;;;;1.80;1.50;;;;;;;18.51;78.58;101163.16;4986608;28;20436;-67
2022/06/29 04:19:13;;;;;;;4.07;1.63;;;;;;;18.58;78.07;101160.81;4991880;28;20045;-66
2022/06/29 04:21:40;;;;;;;7.68;2.25;;;;;;;18.68;77.39;101172.41;4991802;28;20042;-66
2022/06/29 04:24:08;;;;;;;1.92;1.40;;;;;;;18.77;76.95;101178.81;4987978;28;20066;-66
2022/06/29 04:26:35;;;;;;;9.27;2.17;;;;;;;18.87;76.66;101177.06;4989564;28;20648;-67
2022/06/29 04:29:03;;;;;;;5.50;1.90;;;;;;;18.94;76.02;101178.22;5007668;28;20058;-66
2022/06/29 04:31:30;;;;;;;3.85;1.73;;;;;;;19.03;75.68;101169.44;4991876;28;20407;-66
2022/06/29 04:33:58;;;;;;;2.15;1.50;;;;;;;19.14;74.34;101173.88;4983114;28;20065;-66
2022/06/29 04:36:25;;;;;;;3.40;1.65;;;;;;;19.23;74.17;101173.91;4955183;28;20073;-66
2022/06/29 04:38:53;;;;;;;4.40;1.52;;;;;;;19.34;73.97;101175.63;4966116;28;20049;-66
2022/06/29 04:41:21;;;;;;;6.65;1.88;;;;;;;19.36;73.53;101173.69;4978028;28;20062;-66
2022/06/29 04:43:49;;;;;;;2.58;1.60;;;;;;;19.44;73.29;101173.00;4964228;28;20104;-67
2022/06/29 04:46:19;;;;;;;4.10;1.60;;;;;;;19.53;73.13;101176.69;4960147;28;20057;-67
2022/06/29 04:48:58;;;;;;;8.02;2.00;;;;;;;19.70;72.12;101174.25;4980455;28;20046;-67
2022/06/29 04:51:28;;;;;;;2.53;1.33;;;;;;;19.79;71.55;101171.75;4995430;28;20105;-66
2022/06/29 04:53:56;;;;;;;4.45;1.60;;;;;;;19.98;70.96;101174.47;4999721;28;20784;-67
2022/06/29 04:56:27;;;;;;;2.10;1.55;;;;;;;20.09;70.53;101179.69;5000427;28;20053;-67
2022/06/29 04:58:56;;;;;;;2.88;1.42;;;;;;;20.17;70.33;101181.66;4996335;28;20469;-67
2022/06/29 05:01:27;;;;;;;5.70;1.63;;;;;;;20.21;69.86;101185.75;4997387;28;20061;-67
2022/06/29 05:03:55;;;;;;;2.88;1.52;;;;;;;20.33;69.25;101187.31;4998889;28;20050;-66
2022/06/29 05:06:22;;;;;;;6.53;2.03;;;;;;;20.47;68.68;101178.91;5008254;28;20053;-67
2022/06/29 05:08:50;;;;;;;3.85;1.63;;;;;;;20.51;68.51;101194.69;5002176;28;20547;-66
2022/06/29 05:11:18;;;;;;;3.85;1.95;;;;;;;20.56;68.13;101192.41;5016418;28;20058;-66
2022/06/29 05:13:46;;;;;;;4.97;1.45;;;;;;;20.62;68.01;101186.50;5001816;28;20563;-66
2022/06/29 05:16:13;;;;;;;6.57;2.10;;;;;;;20.78;67.37;101189.44;5002362;28;20053;-67
2022/06/29 05:18:41;;;;;;;4.28;1.67;;;;;;;20.76;67.73;101187.88;5015295;28;20967;-66
2022/06/29 05:21:09;;;;;;;3.80;1.52;;;;;;;20.65;67.64;101186.22;4989062;28;20053;-66
2022/06/29 05:23:36;;;;;;;3.80;1.67;;;;;;;20.57;67.85;101181.56;5001852;28;20073;-65
2022/06/29 05:26:04;;;;;;;3.10;1.50;;;;;;;20.57;68.33;101184.25;5011553;28;20076;-66
2022/06/29 05:28:31;;;;;;;2.70;1.73;;;;;;;20.54;68.33;101181.88;5021411;28;20419;-66
2022/06/29 05:30:58;;;;;;;2.45;1.83;;;;;;;20.53;68.31;101176.63;5003103;28;20442;-66
2022/06/29 05:33:25;;;;;;;4.05;1.83;;;;;;;20.62;67.77;101173.13;5008491;28;20065;-67
2022/06/29 05:35:52;;;;;;;3.22;1.92;;;;;;;20.69;67.81;101169.75;5004948;28;20650;-67
2022/06/29 05:38:20;;;;;;;3.88;1.58;;;;;;;20.70;67.47;101158.03;5003849;28;20050;-67
2022/06/29 05:40:47;;;;;;;6.45;1.60;;;;;;;20.78;67.28;101154.66;5000610;28;20050;-66
2022/06/29 05:43:14;;;;;;;4.30;1.80;;;;;;;20.94;66.90;101162.94;5003731;28;20147;-66
2022/06/29 05:45:41;;;;;;;3.33;1.85;;;;;;;21.01;66.43;101160.53;4986970;28;20050;-66
2022/06/29 05:48:08;;;;;;;8.32;2.17;;;;;;;21.11;66.14;101155.97;5005977;28;20066;-66
2022/06/29 05:50:35;;;;;;;5.05;1.67;;;;;;;21.15;65.28;101160.06;4987536;28;20141;-67
2022/06/29 05:53:03;;;;;;;3.33;1.83;;;;;;;21.21;65.41;101161.31;5007557;28;20053;-66
2022/06/29 05:55:31;;;;;;;5.90;1.58;;;;;;;21.29;64.57;101156.06;4999775;28;20058;-66
2022/06/29 05:57:58;;;;;;;6.88;1.85;;;;;;;21.35;63.94;101157.34;4992810;28;20045;-66
2022/06/29 06:00:26;;;;;;;2.80;1.52;;;;;;;21.44;63.81;101157.31;5005583;28;20064;-66
2022/06/29 06:02:53;;;;;;;2.95;1.33;;;;;;;21.53;63.38;101162.78;4999213;28;20050;-68
2022/06/29 06:05:20;;;;;;;3.97;1.60;;;;;;;21.55;62.88;101161.63;5005145;28;20057;-67
2022/06/29 06:07:48;;;;;;;2.38;1.42;;;;;;;21.57;62.86;101156.97;4998156;28;20381;-67
2022/06/29 06:10:16;;;;;;;2.67;1.50;;;;;;;21.59;62.35;101152.28;4993901;28;20065;-67
2022/06/29 06:12:43;;;;;;;4.07;1.45;;;;;;;21.68;61.50;101156.75;5004650;28;20062;-67
2022/06/29 06:15:10;;;;;;;2.22;1.20;;;;;;;21.81;61.30;101169.81;5013341;28;20072;-67
2022/06/29 06:17:38;;;;;;;2.17;1.42;;;;;;;21.97;60.81;101163.75;5013843;28;20042;-68
2022/06/29 06:20:06;;;;;;;2.75;1.60;;;;;;;22.15;59.92;101153.09;5008311;28;20057;-67
2022/06/29 06:22:33;;;;;;;3.63;1.55;;;;;;;22.22;58.48;101136.25;5004309;28;20041;-67
2022/06/29 06:25:00;;;;;;;2.90;1.50;;;;;;;22.28;58.58;101140.13;4999330;28;20053;-67
2022/06/29 06:27:27;;;;;;;3.22;1.63;;;;;;;22.41;58.40;101137.91;5005301;28;20697;-65
2022/06/29 06:29:54;;;;;;;4.78;1.77;;;;;;;22.49;57.49;101142.50;4993944;28;20459;-67
2022/06/29 06:32:22;;;;;;;3.95;1.13;;;;;;;22.57;56.80;101144.41;5003490;28;20560;-67
2022/06/29 06:34:49;;;;;;;1.63;1.10;;;;;;;22.62;55.84;101142.94;4998060;28;20069;-68
2022/06/29 06:37:16;;;;;;;3.17;1.30;;;;;;;22.71;55.70;101136.63;5006466;28;20061;-67
2022/06/29 06:41:21;;;;;;;2.75;1.30;;;;;;;22.76;55.70;101128.13;5001010;28;20050;-68
2022/06/29 06:42:31;;;;;;;3.40;1.30;;;;;;;22.96;55.10;101128.78;4997626;28;20049;-66
2022/06/29 06:44:58;;;;;;;4.53;1.40;;;;;;;23.04;54.95;101128.81;5018547;28;20741;-67
2022/06/29 06:47:25;;;;;;;1.98;1.30;;;;;;;23.16;54.76;101135.59;4981657;28;20046;-67
2022/06/29 06:49:52;;;;;;;4.53;1.63;;;;;;;23.27;52.90;101134.47;4990678;28;20045;-68
2022/06/29 06:52:20;;;;;;;3.75;1.50;;;;;;;23.29;52.04;101131.66;4974097;28;20598;-67
2022/06/29 06:54:47;;;;;;;3.28;1.48;;;;;;;23.31;51.06;101135.00;5008065;28;20161;-68
2022/06/29 06:57:14;;;;;;;4.30;1.67;;;;;;;23.36;50.35;101133.50;4994212;28;20058;-67
2022/06/29 06:59:41;;;;;;;9.18;1.70;;;;;;;23.40;51.01;101134.03;4993624;28;20404;-67
2022/06/29 07:02:08;;;;;;;5.68;1.50;;;;;;;23.53;51.22;101136.28;4960421;28;20056;-67
2022/06/29 07:04:36;;;;;;;4.78;1.52;;;;;;;23.68;51.28;101124.75;4994786;28;20065;-67
2022/06/29 07:07:03;;;;;;;5.43;1.55;;;;;;;23.80;50.72;101127.16;4991932;28;20052;-66
2022/06/29 07:09:33;;;;;;;2.25;1.20;;;;;;;23.85;50.26;101125.66;4993685;28;20050;-67
2022/06/29 07:12:00;;;;;;;3.50;1.20;;;;;;;23.91;49.98;101137.59;4991934;28;20061;-67
2022/06/29 07:14:27;;;;;;;2.95;1.00;;;;;;;23.99;48.83;101137.59;4994900;28;20471;-67
2022/06/29 07:16:54;;;;;;;7.72;1.30;;;;;;;24.16;47.53;101130.41;4991051;28;20050;-67
2022/06/29 07:19:22;;;;;;;6.35;1.48;;;;;;;24.31;47.30;101114.44;4991551;28;20064;-68
2022/06/29 07:21:49;;;;;;;2.85;1.23;;;;;;;24.36;47.20;101120.16;4973063;28;20130;-67
2022/06/29 07:24:16;;;;;;;3.22;1.45;;;;;;;24.32;46.92;101121.53;4979247;28;20035;-68
2022/06/29 07:26:43;;;;;;;3.78;1.17;;;;;;;24.28;46.80;101131.78;4992878;28;20034;-68
2022/06/29 07:29:11;;;;;;;6.13;1.80;;;;;;;24.31;46.89;101125.19;4995323;28;20058;-67
2022/06/29 07:31:38;;;;;;;2.67;1.13;;;;;;;24.32;46.81;101110.75;4989969;28;20428;-68
2022/06/29 07:34:05;;;;;;;5.05;1.38;;;;;;;24.34;46.80;101117.63;4991338;28;20046;-67
2022/06/29 07:36:33;;;;;;;7.78;1.73;;;;;;;24.33;46.73;101113.28;5007463;28;20065;-68
2022/06/29 07:39:00;;;;;;;7.32;1.00;;;;;;;24.29;46.94;101114.63;4991859;28;20050;-68
2022/06/29 07:41:27;;;;;;;3.33;1.23;;;;;;;24.42;46.69;101111.44;4990400;28;20061;-68
2022/06/29 07:43:55;;;;;;;1.55;0.90;;;;;;;24.44;46.07;101109.41;5008749;28;20050;-67
2022/06/29 07:46:23;;;;;;;2.38;1.30;;;;;;;24.52;45.35;101109.41;4997491;28;20050;-67
2022/06/29 07:48:50;;;;;;;2.97;1.10;;;;;;;24.64;45.05;101105.38;4994395;28;20054;-68
2022/06/29 07:51:17;;;;;;;6.82;1.23;;;;;;;24.75;43.55;101107.69;4991270;28;20505;-68
2022/06/29 07:53:44;;;;;;;2.05;1.05;;;;;;;24.90;43.94;101107.00;4977826;28;20046;-67
2022/06/29 07:56:12;;;;;;;1.45;1.05;;;;;;;25.09;43.50;101100.44;4995290;28;20053;-69
2022/06/29 07:58:39;;;;;;;2.28;1.10;;;;;;;25.34;44.02;101093.91;5000479;28;20054;-69
2022/06/29 08:01:10;;;;;;;2.13;1.00;;;;;;;25.54;43.06;101102.41;5012615;28;20046;-72
2022/06/29 08:03:46;;;;;;;3.58;1.25;;;;;;;25.73;42.77;101093.03;4996535;28;20112;-68
2022/06/29 08:06:15;;;;;;;5.70;1.33;;;;;;;25.72;40.97;101094.91;4997775;28;20046;-73
2022/06/29 08:08:43;;;;;;;8.65;1.67;;;;;;;25.72;41.20;101094.06;5004979;28;20073;-76
2022/06/29 08:11:10;;;;;;;5.80;1.08;;;;;;;25.79;41.22;101102.28;4996149;28;20050;-76
2022/06/29 08:13:38;;;;;;;11.63;1.52;;;;;;;26.00;39.97;101089.00;4984824;28;20073;-78
2022/06/29 08:16:06;;;;;;;3.90;1.10;;;;;;;26.24;39.25;101087.97;4979754;28;20070;-77
2022/06/29 08:18:34;;;;;;;4.38;1.17;;;;;;;26.55;37.31;101081.66;5003246;28;20067;-76
2022/06/29 08:21:03;;;;;;;1.83;1.02;;;;;;;26.60;36.73;101081.94;5010366;28;20045;-75
2022/06/29 08:23:31;;;;;;;3.85;1.42;;;;;;;26.76;37.01;101088.03;4995143;28;20066;-77
2022/06/29 08:25:58;;;;;;;3.20;1.00;;;;;;;26.84;36.54;101086.22;4975228;28;20512;-76
2022/06/29 08:28:45;;;;;;;15.63;1.83;;;;;;;26.80;35.32;101093.91;5003891;28;20539;-70
2022/06/29 08:31:12;;;;;;;12.30;1.15;;;;;;;26.91;36.61;101090.72;5013897;28;20080;-69
2022/06/29 08:33:40;;;;;;;5.30;1.05;;;;;;;27.07;35.79;101087.00;5006192;28;20054;-70
2022/06/29 08:36:07;;;;;;;4.57;1.00;;;;;;;27.25;35.55;101089.34;5003848;28;20053;-71
2022/06/29 08:38:35;;;;;;;7.80;1.27;;;;;;;27.39;35.04;101098.47;5021781;28;20538;-70
2022/06/29 08:41:02;;;;;;;8.10;1.40;;;;;;;27.56;34.92;101099.94;5007781;28;20607;-69
2022/06/29 08:43:29;;;;;;;3.03;0.90;;;;;;;27.63;33.64;101097.28;5010918;28;20049;-75
2022/06/29 08:45:56;;;;;;;34.60;30.10;;;;;;;27.47;33.97;101098.38;5008746;28;20054;-76
2022/06/29 08:48:24;;;;;;;10.38;7.40;;;;;;;27.31;34.92;101103.97;5011738;28;20062;-77
2022/06/29 08:50:53;;;;;;;10.70;6.82;;;;;;;27.25;34.91;101097.47;5005788;28;20049;-76
2022/06/29 08:53:22;;;;;;;3.45;1.60;;;;;;;27.23;35.43;101099.50;5006953;28;20142;-76
2022/06/29 08:55:51;;;;;;;2.22;1.20;;;;;;;27.19;34.68;101090.09;4995778;28;20038;-74
2022/06/29 08:58:23;;;;;;;4.93;1.70;;;;;;;27.34;35.15;101093.63;4988653;28;20397;-76
2022/06/29 09:00:50;;;;;;;2.58;0.98;;;;;;;27.29;34.75;101087.94;4995064;28;20908;-74
2022/06/29 09:03:19;;;;;;;35.42;2.60;;;;;;;27.47;34.21;101091.09;4987472;28;20057;-74
2022/06/29 09:05:57;;;;;;;10.50;1.73;;;;;;;27.65;34.29;101087.09;5002932;28;20544;-73
2022/06/29 09:08:24;;;;;;;6.60;1.45;;;;;;;27.84;34.34;101091.09;4987611;28;20499;-73
2022/06/29 09:10:51;;;;;;;7.28;1.10;;;;;;;27.83;33.79;101084.88;5016004;28;20081;-72
2022/06/29 09:13:23;;;;;;;2.05;0.90;;;;;;;27.93;33.04;101088.06;5010704;28;20068;-72
2022/06/29 09:15:58;;;;;;;3.42;1.30;;;;;;;27.90;32.74;101083.03;4986839;28;20213;-71
2022/06/29 09:18:26;;;;;;;1.33;0.98;;;;;;;27.85;33.71;101090.91;5037660;28;20358;-73
2022/06/29 09:20:55;;;;;;;5.13;1.20;;;;;;;27.90;33.53;101083.03;5010705;28;20046;-71
2022/06/29 09:23:23;;;;;;;11.07;8.45;;;;;;;27.98;32.84;101087.50;5022951;28;20049;-71
2022/06/29 09:25:51;;;;;;;9.05;5.95;;;;;;;27.98;33.00;101084.78;4999718;28;20514;-72
2022/06/29 09:28:23;;;;;;;7.00;6.07;;;;;;;27.96;32.41;101086.84;5002131;28;20073;-75
2022/06/29 09:30:55;;;;;;;2.90;1.27;;;;;;;27.80;33.40;101085.25;4986089;28;20048;-72
2022/06/29 09:33:27;;;;;;;4.80;1.10;;;;;;;27.83;35.74;101078.59;5032874;28;20058;-73
2022/06/29 09:36:17;;;;;;;4.80;1.35;;;;;;;27.78;34.16;101081.88;4972543;28;20046;-70
2022/06/29 09:38:44;;;;;;;5.28;1.60;;;;;;;27.67;34.70;101077.78;4991179;28;20131;-72
2022/06/29 09:41:12;;;;;;;8.60;1.30;;;;;;;27.68;35.37;101078.63;5007182;28;20527;-73
2022/06/29 09:43:41;;;;;;;3.95;1.40;;;;;;;27.83;34.75;101084.00;5009908;28;20055;-73
2022/06/29 09:46:10;;;;;;;6.88;1.33;;;;;;;27.82;35.15;101076.91;5005144;28;20042;-73
2022/06/29 09:48:39;;;;;;;5.85;0.88;;;;;;;27.93;34.29;101073.72;4991121;28;21327;-73
2022/06/29 09:53:59;;;;;;;1.67;1.05;;;;;;;28.34;34.97;101064.91;4995633;28;20496;-73
2022/06/29 09:56:29;;;;;;;4.38;1.23;;;;;;;28.45;34.46;101061.69;4991371;28;20065;-73
2022/06/29 09:59:00;;;;;;;2.63;1.13;;;;;;;28.51;34.90;101060.91;5005921;28;20158;-74
2022/06/29 10:04:14;;;;;;;2.75;0.85;;;;;;;28.33;34.54;101053.25;5004490;28;20054;-75
2022/06/29 10:06:45;;;;;;;3.35;1.13;;;;;;;28.12;35.12;101050.56;5003890;28;20057;-74
2022/06/29 10:09:13;;;;;;;4.80;1.70;;;;;;;28.07;34.25;101051.16;5008331;28;20065;-74
2022/06/29 10:15:00;;;;;;;4.07;1.27;;;;;;;27.81;35.18;101053.59;5001115;28;20101;-75
2022/06/29 10:17:49;;;;;;;3.42;1.35;;;;;;;27.86;35.84;101053.84;5011565;28;20092;-73
2022/06/29 10:20:42;;;;;;;5.07;1.40;;;;;;;27.75;35.01;101039.00;4965193;28;20386;-72
2022/06/29 10:23:40;;;;;;;25.52;22.83;;;;;;;27.71;35.00;101045.78;5003147;28;20052;-72
2022/06/29 10:26:38;;;;;;;12.10;10.80;;;;;;;27.55;34.84;101044.13;5004879;28;20515;-72
2022/06/29 10:29:05;;;;;;;8.60;6.47;;;;;;;27.40;35.32;101041.50;5000928;28;20805;-72
2022/06/29 10:31:50;;;;;;;3.55;1.75;;;;;;;27.25;34.81;101049.63;4991193;28;20049;-72
2022/06/29 10:37:09;;;;;;;7.95;1.65;;;;;;;27.07;36.83;101046.47;5002323;28;20057;-73
2022/06/29 10:39:45;;;;;;;6.18;1.42;;;;;;;27.07;37.97;101035.66;5020508;28;20058;-75
2022/06/29 10:45:09;;;;;;;;;;;;;;;27.24;37.53;101037.16;4992582;28;20057;-77
2022/06/29 10:47:36;;;;;;;7.20;1.88;;;;;;;27.37;38.11;101038.31;4991351;28;20387;-74
2022/06/29 10:50:28;;;;;;;3.83;1.30;;;;;;;27.55;36.95;101032.50;4993367;28;20157;-74
2022/06/29 10:53:03;;;;;;;2.55;1.20;;;;;;;27.45;37.32;101022.81;4982628;28;20073;-74
2022/06/29 10:55:33;;;;;;;1.75;1.30;;;;;;;27.48;36.23;101018.91;5009188;28;20037;-75
2022/06/29 10:58:02;;;;;;;1.85;1.17;;;;;;;27.50;35.48;101024.94;5003786;28;20042;-75
2022/06/29 11:00:34;;;;;;;3.13;1.10;;;;;;;27.52;35.71;101017.50;4991300;28;20108;-75
2022/06/29 11:03:12;;;;;;;1.45;1.02;;;;;;;27.51;35.36;101013.97;5023530;28;20083;-74
2022/06/29 11:12:01;;;;;;;2.05;0.88;;;;;;;27.67;35.91;101010.16;5004907;28;20049;-74
2022/06/29 11:14:03;;;;;;;2.08;1.13;;;;;;;27.68;36.36;101005.56;5016483;28;20052;-76
2022/06/29 11:16:36;;;;;;;4.03;1.20;;;;;;;27.69;35.78;101009.94;5007685;28;20439;-74
2022/06/29 11:19:04;;;;;;;2.45;1.20;;;;;;;27.64;36.00;101010.53;4991645;28;20053;-74
2022/06/29 11:21:32;;;;;;;15.15;8.50;;;;;;;27.68;35.95;101001.00;5007780;28;20070;-72
2022/06/29 11:24:04;;;;;;;18.98;16.95;;;;;;;27.58;35.54;101007.78;4991665;28;20401;-72
2022/06/29 11:26:33;;;;;;;10.07;7.90;;;;;;;27.65;35.40;101008.66;4990997;28;20056;-72
2022/06/29 11:29:02;;;;;;;8.07;2.72;;;;;;;27.88;34.45;100998.53;5004516;28;20056;-72
2022/06/29 11:31:29;;;;;;;6.78;2.50;;;;;;;27.98;34.73;101000.91;4987320;28;20050;-73
2022/06/29 11:33:57;;;;;;;5.05;2.10;;;;;;;28.09;33.96;100992.22;5026855;28;20061;-74
2022/06/29 11:36:26;;;;;;;7.05;1.85;;;;;;;28.16;34.45;100995.84;5011368;28;20038;-74
2022/06/29 11:38:55;;;;;;;3.58;1.85;;;;;;;28.30;34.40;100999.47;5001401;28;20148;-74
2022/06/29 11:41:26;;;;;;;5.40;1.38;;;;;;;28.34;33.32;100989.09;5009088;28;20393;-74
2022/06/29 11:44:04;;;;;;;2.13;1.10;;;;;;;28.36;33.25;100977.03;5010236;28;20141;-74
2022/06/29 11:46:35;;;;;;;1.08;0.88;;;;;;;28.36;32.58;100981.63;5009734;28;20041;-73
2022/06/29 11:51:52;;;;;;;5.70;1.30;;;;;;;28.59;33.29;100976.75;5009971;28;20160;-73
2022/06/29 11:54:39;;;;;;;2.33;1.10;;;;;;;28.80;32.71;100983.13;5015003;28;20068;-74
2022/06/29 11:57:09;;;;;;;1.45;0.98;;;;;;;29.02;31.64;100974.72;4985210;28;20042;-74
2022/06/29 11:59:39;;;;;;;3.70;1.30;;;;;;;29.07;31.34;100973.25;4991663;28;20038;-74
2022/06/29 12:02:07;;;;;;;2.03;1.38;;;;;;;29.26;31.81;100973.31;5011718;28;20121;-74
2022/06/29 12:04:37;;;;;;;5.78;1.30;;;;;;;29.60;30.80;100968.84;4996471;28;20507;-74